createdAt,value
2022-09-15T00:00:28.663Z,80.56
2022-09-15T00:02:55.283Z,80.34
2022-09-15T00:05:21.773Z,80.46
2022-09-15T00:07:48.396Z,80.55
2022-09-15T00:10:15.120Z,80.78
2022-09-15T00:12:41.588Z,80.94
2022-09-15T00:15:12.442Z,80.95
2022-09-15T00:17:38.896Z,80.61
2022-09-15T00:20:07.442Z,81.12
2022-09-15T00:22:34.043Z,81.38
2022-09-15T00:25:00.536Z,81.20
2022-09-15T00:27:27.003Z,81.46
2022-09-15T00:29:53.492Z,81.60
2022-09-15T00:32:19.998Z,81.69
2022-09-15T00:34:46.457Z,81.23
2022-09-15T00:37:13.199Z,81.66
2022-09-15T00:39:39.701Z,81.44
2022-09-15T00:42:06.345Z,81.74
2022-09-15T00:44:35.526Z,81.64
2022-09-15T00:47:18.706Z,81.88
2022-09-15T00:49:47.288Z,81.72
2022-09-15T00:52:25.360Z,82.08
2022-09-15T00:55:01.321Z,82.07
2022-09-15T00:57:34.407Z,81.92
2022-09-15T01:00:04.320Z,81.81
2022-09-15T01:02:35.804Z,81.95
2022-09-15T01:05:05.874Z,81.90
2022-09-15T01:07:39.782Z,82.04
2022-09-15T01:10:11.705Z,81.60
2022-09-15T01:12:40.375Z,82.00
2022-09-15T01:15:07.703Z,81.76
2022-09-15T01:18:03.322Z,81.88
2022-09-15T01:20:38.901Z,81.69
2022-09-15T01:23:38.070Z,81.99
2022-09-15T01:26:13.903Z,82.04
2022-09-15T01:29:24.130Z,82.22
2022-09-15T01:32:40.044Z,82.07
2022-09-15T01:35:31.867Z,82.20
2022-09-15T01:38:02.595Z,82.17
2022-09-15T01:40:35.517Z,82.38
2022-09-15T01:43:05.228Z,82.47
2022-09-15T01:45:34.212Z,82.39
2022-09-15T01:48:03.686Z,82.60
2022-09-15T01:50:38.871Z,82.60
2022-09-15T01:53:13.362Z,82.51
2022-09-15T01:55:44.734Z,82.80
2022-09-15T01:58:11.349Z,82.80
2022-09-15T02:00:43.590Z,82.78
2022-09-15T02:03:44.180Z,82.47
2022-09-15T02:06:18.430Z,82.45
2022-09-15T02:09:10.978Z,82.74
2022-09-15T02:11:45.562Z,82.43
2022-09-15T02:14:21.334Z,82.46
2022-09-15T02:16:52.245Z,82.73
2022-09-15T02:19:42.026Z,82.44
2022-09-15T02:22:17.699Z,82.26
2022-09-15T02:24:56.950Z,82.74
2022-09-15T02:27:28.005Z,82.41
2022-09-15T02:29:59.738Z,82.42
2022-09-15T02:32:28.203Z,82.15
2022-09-15T02:34:58.425Z,82.13
2022-09-15T02:37:26.340Z,82.18
2022-09-15T02:39:59.015Z,81.85
2022-09-15T02:42:31.249Z,82.06
2022-09-15T02:45:00.625Z,82.26
2022-09-15T02:47:32.047Z,81.96
2022-09-15T02:49:58.610Z,82.16
2022-09-15T02:52:26.160Z,82.14
2022-09-15T02:54:53.624Z,82.28
2022-09-15T02:57:20.922Z,81.93
2022-09-15T03:00:06.666Z,82.11
2022-09-15T03:02:33.894Z,82.04
2022-09-15T03:05:00.454Z,81.83
2022-09-15T03:07:28.434Z,81.83
2022-09-15T03:09:55.009Z,82.02
2022-09-15T03:12:21.841Z,81.81
2022-09-15T03:14:48.281Z,82.01
2022-09-15T03:17:15.150Z,81.83
2022-09-15T03:19:41.651Z,81.82
2022-09-15T03:22:09.428Z,81.94
2022-09-15T03:24:37.221Z,82.07
2022-09-15T03:27:04.112Z,81.89
2022-09-15T03:29:31.009Z,81.65
2022-09-15T03:31:57.737Z,81.66
2022-09-15T03:34:24.328Z,81.71
2022-09-15T03:36:50.835Z,81.68
2022-09-15T03:39:17.339Z,81.68
2022-09-15T03:41:43.774Z,81.71
2022-09-15T03:44:10.322Z,81.72
2022-09-15T03:46:36.809Z,81.59
2022-09-15T03:49:03.523Z,81.41
2022-09-15T03:51:30.029Z,81.08
2022-09-15T03:53:56.549Z,81.46
2022-09-15T03:56:26.994Z,81.22
2022-09-15T03:58:53.759Z,81.57
2022-09-15T04:01:21.222Z,81.57
2022-09-15T04:03:51.106Z,81.77
2022-09-15T04:06:19.435Z,81.55
2022-09-15T04:08:46.013Z,81.66
2022-09-15T04:11:13.885Z,81.76
2022-09-15T04:13:43.992Z,81.70
2022-09-15T04:16:13.299Z,81.69
2022-09-15T04:18:40.264Z,81.78
2022-09-15T04:21:08.866Z,81.53
2022-09-15T04:23:36.448Z,81.66
2022-09-15T04:26:07.091Z,81.80
2022-09-15T04:28:36.393Z,81.57
2022-09-15T04:31:14.435Z,81.26
2022-09-15T04:33:42.898Z,81.68
2022-09-15T04:36:12.456Z,81.74
2022-09-15T04:38:39.327Z,81.88
2022-09-15T04:41:06.799Z,81.52
2022-09-15T04:43:33.722Z,81.79
2022-09-15T04:46:00.666Z,81.74
2022-09-15T04:48:28.075Z,81.35
2022-09-15T04:50:54.757Z,80.42
2022-09-15T04:53:21.410Z,79.75
2022-09-15T04:55:48.158Z,79.83
2022-09-15T04:58:14.655Z,80.28
2022-09-15T05:00:45.775Z,79.92
2022-09-15T05:03:13.938Z,80.38
2022-09-15T05:05:41.297Z,80.08
2022-09-15T05:08:08.159Z,80.02
2022-09-15T05:10:35.155Z,80.30
2022-09-15T05:13:01.739Z,80.02
2022-09-15T05:15:28.349Z,80.05
2022-09-15T05:17:54.958Z,79.67
2022-09-15T05:20:21.509Z,79.18
2022-09-15T05:22:48.016Z,78.65
2022-09-15T05:25:14.466Z,78.52
2022-09-15T05:27:41.201Z,78.49
2022-09-15T05:30:35.809Z,78.71
2022-09-15T05:32:54.706Z,78.27
2022-09-15T05:35:21.190Z,78.87
2022-09-15T05:37:47.627Z,78.72
2022-09-15T05:40:15.236Z,79.35
2022-09-15T05:42:41.752Z,78.80
2022-09-15T05:45:08.906Z,78.90
2022-09-15T05:47:35.346Z,79.00
2022-09-15T05:50:01.832Z,78.61
2022-09-15T05:52:28.273Z,78.39
2022-09-15T05:54:58.392Z,78.48
2022-09-15T05:57:25.707Z,78.86
2022-09-15T05:59:52.409Z,78.89
2022-09-15T06:02:19.117Z,78.72
2022-09-15T06:04:45.666Z,78.43
2022-09-15T06:07:12.396Z,78.53
2022-09-15T06:09:39.356Z,78.72
2022-09-15T06:12:06.011Z,78.29
2022-09-15T06:14:32.444Z,78.57
2022-09-15T06:16:58.903Z,77.79
2022-09-15T06:19:25.425Z,77.74
2022-09-15T06:21:52.188Z,78.08
2022-09-15T06:24:18.699Z,77.60
2022-09-15T06:26:45.206Z,76.87
2022-09-15T06:29:12.035Z,77.47
2022-09-15T06:31:38.720Z,77.48
2022-09-15T06:34:05.548Z,77.04
2022-09-15T06:36:32.683Z,76.89
2022-09-15T06:38:59.865Z,77.00
2022-09-15T06:41:38.244Z,76.99
2022-09-15T06:44:18.690Z,76.60
2022-09-15T06:46:45.333Z,76.13
2022-09-15T06:49:12.273Z,76.29
2022-09-15T06:51:38.860Z,75.96
2022-09-15T06:54:06.341Z,75.96
2022-09-15T06:56:37.685Z,75.96
2022-09-15T06:59:05.070Z,75.67
2022-09-15T07:01:32.562Z,76.17
2022-09-15T07:04:01.166Z,76.20
2022-09-15T07:06:29.225Z,76.10
2022-09-15T07:08:56.651Z,75.93
2022-09-15T07:11:23.189Z,75.69
2022-09-15T07:13:50.672Z,75.70
2022-09-15T07:16:18.979Z,75.36
2022-09-15T07:18:46.725Z,75.19
2022-09-15T07:21:19.808Z,73.86
2022-09-15T07:23:47.327Z,73.73
2022-09-15T07:26:25.545Z,73.05
2022-09-15T07:28:55.647Z,73.11
2022-09-15T07:31:25.194Z,72.99
2022-09-15T07:33:52.096Z,73.34
2022-09-15T07:36:19.174Z,73.70
2022-09-15T07:38:48.084Z,72.47
2022-09-15T07:41:20.962Z,72.17
2022-09-15T07:43:49.513Z,72.06
2022-09-15T07:46:17.627Z,72.26
2022-09-15T07:48:48.366Z,72.03
2022-09-15T07:51:15.538Z,71.80
2022-09-15T07:53:43.540Z,71.52
2022-09-15T07:56:10.512Z,71.24
2022-09-15T07:58:37.044Z,71.64
2022-09-15T08:01:05.703Z,71.10
2022-09-15T08:03:33.033Z,71.24
2022-09-15T08:06:03.356Z,71.55
2022-09-15T08:08:30.258Z,71.14
2022-09-15T08:10:58.079Z,70.37
2022-09-15T08:13:25.007Z,70.78
2022-09-15T08:15:52.172Z,71.03
2022-09-15T08:18:18.727Z,70.09
2022-09-15T08:20:45.291Z,70.13
2022-09-15T08:23:11.877Z,70.00
2022-09-15T08:25:39.572Z,69.98
2022-09-15T08:28:06.178Z,69.44
2022-09-15T08:30:32.801Z,69.41
2022-09-15T08:32:59.305Z,69.53
2022-09-15T08:35:25.873Z,69.54
2022-09-15T08:37:55.113Z,69.58
2022-09-15T08:40:32.582Z,69.95
2022-09-15T08:43:06.387Z,70.10
2022-09-15T08:45:43.674Z,69.89
2022-09-15T08:48:15.766Z,69.62
2022-09-15T08:50:47.634Z,69.54
2022-09-15T08:53:20.016Z,69.68
2022-09-15T08:55:52.568Z,69.85
2022-09-15T08:58:25.466Z,69.82
2022-09-15T09:01:16.502Z,69.33
2022-09-15T09:03:58.138Z,69.36
2022-09-15T09:06:49.988Z,69.63
2022-09-15T09:09:40.048Z,69.39
2022-09-15T09:12:32.728Z,69.00
2022-09-15T09:15:25.439Z,69.47
2022-09-15T09:18:30.271Z,69.40
2022-09-15T09:21:15.582Z,68.68
2022-09-15T09:23:54.508Z,68.75
2022-09-15T09:26:21.251Z,68.59
2022-09-15T09:28:55.034Z,68.62
2022-09-15T09:31:23.181Z,68.50
2022-09-15T09:34:06.322Z,68.45
2022-09-15T09:36:33.837Z,68.15
2022-09-15T09:39:02.001Z,67.60
2022-09-15T09:41:35.762Z,68.02
2022-09-15T09:44:12.618Z,67.89
2022-09-15T09:46:39.359Z,67.09
2022-09-15T09:49:26.051Z,67.00
2022-09-15T09:51:55.144Z,66.81
2022-09-15T09:54:28.202Z,66.74
2022-09-15T09:56:57.520Z,66.77
2022-09-15T09:59:40.631Z,66.75
2022-09-15T10:02:20.734Z,66.35
2022-09-15T10:05:07.498Z,66.53
2022-09-15T10:07:40.192Z,66.46
2022-09-15T10:10:18.213Z,66.23
2022-09-15T10:12:44.947Z,66.36
2022-09-15T10:15:25.213Z,66.68
2022-09-15T10:17:53.076Z,66.75
2022-09-15T10:20:28.486Z,66.86
2022-09-15T10:23:25.840Z,66.69
2022-09-15T10:25:59.600Z,66.44
2022-09-15T10:28:27.536Z,65.65
2022-09-15T10:31:13.302Z,65.75
2022-09-15T10:33:47.781Z,65.65
2022-09-15T10:36:22.500Z,64.51
2022-09-15T10:39:00.198Z,63.67
2022-09-15T10:41:42.333Z,63.01
2022-09-15T10:44:30.139Z,62.22
2022-09-15T10:47:19.808Z,61.77
2022-09-15T10:50:12.424Z,61.24
2022-09-15T10:53:03.181Z,60.61
2022-09-15T10:55:52.685Z,59.74
2022-09-15T10:58:25.924Z,58.24
2022-09-15T11:01:12.830Z,58.04
2022-09-15T11:04:00.153Z,57.97
2022-09-15T11:06:42.637Z,57.46
2022-09-15T11:09:15.041Z,57.31
2022-09-15T11:11:50.774Z,56.90
2022-09-15T11:14:35.480Z,56.69
2022-09-15T11:17:33.749Z,56.56
2022-09-15T11:20:25.349Z,56.35
2022-09-15T11:23:25.832Z,56.13
2022-09-15T11:26:16.067Z,56.02
2022-09-15T11:29:17.134Z,54.09
2022-09-15T11:31:47.795Z,53.99
2022-09-15T11:34:29.761Z,54.00
2022-09-15T11:37:17.101Z,53.67
2022-09-15T11:39:53.408Z,53.74
2022-09-15T11:42:25.556Z,53.84
2022-09-15T11:44:53.493Z,54.10
2022-09-15T11:47:42.311Z,54.33
2022-09-15T11:50:20.623Z,54.03
2022-09-15T11:52:58.109Z,53.28
2022-09-15T11:55:33.579Z,53.26
2022-09-15T11:58:09.298Z,52.72
2022-09-15T12:00:43.245Z,51.73
2022-09-15T12:03:31.466Z,51.10
2022-09-15T12:06:07.436Z,50.20
2022-09-15T12:08:54.579Z,50.23
2022-09-15T12:11:25.847Z,49.28
2022-09-15T12:13:54.479Z,49.28
2022-09-15T12:16:21.938Z,48.98
2022-09-15T12:19:10.260Z,48.83
2022-09-15T12:22:00.747Z,49.49
2022-09-15T12:25:04.434Z,49.42
2022-09-15T12:27:31.081Z,49.16
2022-09-15T12:30:00.319Z,49.76
2022-09-15T12:32:35.060Z,50.29
2022-09-15T12:35:19.958Z,50.60
2022-09-15T12:37:49.023Z,50.94
2022-09-15T12:40:25.166Z,50.96
2022-09-15T12:42:52.064Z,50.78
2022-09-15T12:45:30.824Z,51.03
2022-09-15T12:48:04.144Z,50.95
2022-09-15T12:50:32.190Z,50.26
2022-09-15T12:53:01.978Z,50.43
2022-09-15T12:55:37.548Z,50.23
2022-09-15T12:58:10.293Z,49.90
2022-09-15T13:00:54.783Z,49.96
2022-09-15T13:06:21.778Z,50.00
2022-09-15T13:09:01.479Z,50.12
2022-09-15T13:11:37.537Z,49.88
2022-09-15T13:14:04.271Z,50.25
2022-09-15T13:16:39.992Z,50.41
2022-09-15T13:19:42.318Z,50.23
2022-09-15T13:22:11.457Z,50.28
2022-09-15T13:25:01.679Z,50.16
2022-09-15T13:27:51.983Z,50.02
2022-09-15T13:30:21.414Z,49.42
2022-09-15T13:33:21.039Z,48.89
2022-09-15T13:35:59.694Z,48.50
2022-09-15T13:38:31.845Z,47.72
2022-09-15T13:41:23.595Z,47.85
2022-09-15T13:44:12.550Z,48.01
2022-09-15T13:46:53.627Z,47.36
2022-09-15T13:49:45.004Z,47.40
2022-09-15T13:52:22.181Z,46.82
2022-09-15T13:55:24.060Z,46.46
2022-09-15T14:01:07.443Z,46.40
2022-09-15T14:03:36.934Z,46.54
2022-09-15T14:06:11.927Z,46.35
2022-09-15T14:08:40.534Z,46.18
2022-09-15T14:11:11.989Z,45.73
2022-09-15T14:13:43.497Z,45.25
2022-09-15T14:16:28.485Z,45.51
2022-09-15T14:18:58.324Z,45.66
2022-09-15T14:21:27.512Z,46.03
2022-09-15T14:23:57.027Z,45.76
2022-09-15T14:26:26.718Z,45.92
2022-09-15T14:28:59.326Z,45.84
2022-09-15T14:31:38.554Z,45.60
2022-09-15T14:34:09.744Z,45.46
2022-09-15T14:36:36.329Z,44.91
2022-09-15T14:39:17.845Z,45.04
2022-09-15T14:41:45.311Z,45.01
2022-09-15T14:47:13.242Z,45.38
2022-09-15T14:49:39.875Z,45.12
2022-09-15T14:52:22.667Z,45.22
2022-09-15T14:54:50.383Z,44.88
2022-09-15T14:57:20.703Z,45.04
2022-09-15T14:59:54.086Z,44.95
2022-09-15T15:02:39.443Z,45.13
2022-09-15T15:05:14.437Z,45.11
2022-09-15T15:07:42.236Z,44.78
2022-09-15T15:10:17.747Z,45.09
2022-09-15T15:12:48.365Z,45.02
2022-09-15T15:15:16.345Z,45.13
2022-09-15T15:17:49.730Z,44.91
2022-09-15T15:20:16.297Z,45.11
2022-09-15T15:22:44.611Z,45.37
2022-09-15T15:25:24.534Z,45.33
2022-09-15T15:27:56.628Z,45.50
2022-09-15T15:30:33.507Z,45.57
2022-09-15T15:33:01.483Z,45.29
2022-09-15T15:35:29.252Z,45.76
2022-09-15T15:38:28.142Z,45.73
2022-09-15T15:41:03.030Z,45.96
2022-09-15T15:43:29.895Z,45.48
2022-09-15T15:46:00.949Z,45.73
2022-09-15T15:48:35.233Z,45.91
2022-09-15T15:51:05.023Z,45.77
2022-09-15T15:53:31.580Z,46.19
2022-09-15T15:55:59.654Z,45.96
2022-09-15T15:58:26.334Z,46.28
2022-09-15T16:00:56.293Z,46.22
2022-09-15T16:03:23.991Z,46.60
2022-09-15T16:05:58.160Z,46.49
2022-09-15T16:08:30.040Z,46.67
2022-09-15T16:10:57.661Z,46.97
2022-09-15T16:13:25.735Z,47.08
2022-09-15T16:15:53.853Z,46.93
2022-09-15T16:18:21.413Z,47.09
2022-09-15T16:20:48.246Z,47.16
2022-09-15T16:23:17.453Z,47.38
2022-09-15T16:26:07.619Z,47.80
2022-09-15T16:28:34.303Z,48.34
2022-09-15T16:31:00.971Z,48.59
2022-09-15T16:33:27.576Z,48.26
2022-09-15T16:36:03.606Z,48.92
2022-09-15T16:38:30.171Z,48.83
2022-09-15T16:40:56.788Z,48.88
2022-09-15T16:43:23.353Z,48.70
2022-09-15T16:45:51.354Z,48.72
2022-09-15T16:48:18.066Z,48.57
2022-09-15T16:50:56.074Z,48.69
2022-09-15T16:53:33.618Z,48.93
2022-09-15T16:56:00.465Z,48.83
2022-09-15T16:58:27.679Z,48.78
2022-09-15T17:00:54.375Z,48.90
2022-09-15T17:03:23.815Z,48.54
2022-09-15T17:05:52.604Z,48.83
2022-09-15T17:08:22.068Z,49.10
2022-09-15T17:10:49.787Z,49.22
2022-09-15T17:13:19.259Z,49.61
2022-09-15T17:15:46.837Z,49.85
2022-09-15T17:18:15.517Z,50.00
2022-09-15T17:20:47.089Z,50.38
2022-09-15T17:23:27.814Z,50.66
2022-09-15T17:25:58.317Z,50.98
2022-09-15T17:28:28.861Z,51.29
2022-09-15T17:31:25.802Z,51.75
2022-09-15T17:33:53.028Z,52.08
2022-09-15T17:36:19.878Z,52.60
2022-09-15T17:38:48.705Z,52.65
2022-09-15T17:41:17.339Z,53.10
2022-09-15T17:43:44.159Z,53.57
2022-09-15T17:46:11.106Z,53.99
2022-09-15T17:48:38.994Z,54.01
2022-09-15T17:51:07.153Z,53.95
2022-09-15T17:53:34.184Z,54.23
2022-09-15T17:56:01.008Z,54.61
2022-09-15T17:58:29.877Z,54.85
2022-09-15T18:00:57.224Z,55.11
2022-09-15T18:03:35.641Z,55.28
2022-09-15T18:06:05.257Z,55.82
2022-09-15T18:08:33.117Z,55.92
2022-09-15T18:11:00.981Z,56.36
2022-09-15T18:13:29.836Z,56.31
2022-09-15T18:15:57.176Z,56.69
2022-09-15T18:18:26.166Z,57.23
2022-09-15T18:20:55.151Z,57.30
2022-09-15T18:23:23.824Z,57.83
2022-09-15T18:25:51.137Z,57.94
2022-09-15T18:28:19.127Z,58.37
2022-09-15T18:30:48.547Z,58.39
2022-09-15T18:33:18.218Z,58.88
2022-09-15T18:35:45.459Z,59.20
2022-09-15T18:38:13.590Z,59.34
2022-09-15T18:40:45.199Z,59.64
2022-09-15T18:43:12.010Z,59.15
2022-09-15T18:45:40.254Z,59.46
2022-09-15T18:48:10.505Z,59.93
2022-09-15T18:50:40.438Z,60.00
2022-09-15T18:53:06.988Z,60.26
2022-09-15T18:55:33.585Z,60.32
2022-09-15T18:58:01.091Z,60.62
2022-09-15T19:00:28.801Z,60.82
2022-09-15T19:03:00.466Z,61.17
2022-09-15T19:05:27.825Z,61.07
2022-09-15T19:07:55.426Z,61.20
2022-09-15T19:10:23.113Z,61.71
2022-09-15T19:12:49.857Z,62.23
2022-09-15T19:15:16.410Z,61.63
2022-09-15T19:17:43.832Z,61.82
2022-09-15T19:20:14.692Z,61.62
2022-09-15T19:22:42.112Z,62.03
2022-09-15T19:25:10.300Z,62.12
2022-09-15T19:27:39.839Z,61.97
2022-09-15T19:30:09.905Z,62.28
2022-09-15T19:32:37.670Z,62.40
2022-09-15T19:35:04.755Z,62.91
2022-09-15T19:37:31.210Z,62.75
2022-09-15T19:39:57.716Z,62.87
2022-09-15T19:42:24.272Z,62.65
2022-09-15T19:44:54.278Z,62.55
2022-09-15T19:47:20.796Z,62.26
2022-09-15T19:49:47.506Z,62.60
2022-09-15T19:52:14.028Z,62.88
2022-09-15T19:54:40.504Z,63.16
2022-09-15T19:57:07.022Z,62.75
2022-09-15T19:59:33.784Z,62.37
2022-09-15T20:02:00.976Z,62.61
2022-09-15T20:04:28.496Z,62.21
2022-09-15T20:06:55.113Z,62.25
2022-09-15T20:09:22.440Z,62.43
2022-09-15T20:11:49.151Z,62.48
2022-09-15T20:14:15.975Z,62.23
2022-09-15T20:16:42.615Z,62.66
2022-09-15T20:19:09.448Z,62.44
2022-09-15T20:21:52.752Z,62.51
2022-09-15T20:24:20.678Z,62.46
2022-09-15T20:26:47.626Z,62.02
2022-09-15T20:29:14.386Z,62.33
2022-09-15T20:31:41.564Z,62.07
2022-09-15T20:34:08.334Z,61.93
2022-09-15T20:36:37.531Z,62.14
2022-09-15T20:39:07.805Z,62.30
2022-09-15T20:41:34.749Z,62.13
2022-09-15T20:44:01.697Z,62.18
2022-09-15T20:46:31.472Z,62.04
2022-09-15T20:48:58.088Z,61.98
2022-09-15T20:51:27.893Z,61.80
2022-09-15T20:53:56.191Z,62.24
2022-09-15T20:56:25.573Z,62.71
2022-09-15T20:58:58.409Z,62.37
2022-09-15T21:01:32.320Z,62.62
2022-09-15T21:03:58.914Z,62.28
2022-09-15T21:06:27.426Z,62.21
2022-09-15T21:08:56.089Z,62.25
2022-09-15T21:11:23.976Z,62.27
2022-09-15T21:13:50.586Z,62.03
2022-09-15T21:16:20.597Z,62.28
2022-09-15T21:18:48.844Z,62.44
2022-09-15T21:21:21.245Z,62.21
2022-09-15T21:23:50.449Z,62.01
2022-09-15T21:26:22.518Z,61.69
2022-09-15T21:28:49.839Z,62.03
2022-09-15T21:31:22.049Z,62.07
2022-09-15T21:33:51.231Z,62.01
2022-09-15T21:36:24.480Z,61.98
2022-09-15T21:38:52.861Z,61.86
2022-09-15T21:41:21.944Z,61.99
2022-09-15T21:43:49.664Z,62.50
2022-09-15T21:46:19.005Z,62.59
2022-09-15T21:48:48.645Z,62.52
2022-09-15T21:51:23.525Z,62.59
2022-09-15T21:53:53.406Z,62.78
2022-09-15T21:56:20.567Z,62.85
2022-09-15T21:58:47.039Z,62.86
2022-09-15T22:01:20.674Z,62.68
2022-09-15T22:03:56.397Z,62.84
2022-09-15T22:06:30.186Z,62.46
2022-09-15T22:09:00.511Z,62.76
2022-09-15T22:11:27.248Z,62.46
2022-09-15T22:13:53.849Z,62.22
2022-09-15T22:16:22.789Z,62.16
2022-09-15T22:18:49.833Z,62.58
2022-09-15T22:21:20.126Z,62.20
2022-09-15T22:23:48.495Z,62.40
2022-09-15T22:26:28.141Z,62.76
2022-09-15T22:28:55.339Z,62.70
2022-09-15T22:31:23.408Z,62.50
2022-09-15T22:33:50.170Z,61.96
2022-09-15T22:36:30.161Z,62.47
2022-09-15T22:39:04.022Z,62.31
2022-09-15T22:41:36.657Z,61.92
2022-09-15T22:44:04.709Z,62.31
2022-09-15T22:46:31.515Z,62.36
2022-09-15T22:48:58.298Z,62.48
2022-09-15T22:51:25.018Z,61.99
2022-09-15T22:53:57.280Z,62.41
2022-09-15T22:56:25.969Z,62.87
2022-09-15T22:58:52.949Z,62.72
2022-09-15T23:01:22.372Z,62.62
2022-09-15T23:03:53.969Z,62.79
2022-09-15T23:06:21.588Z,63.05
2022-09-15T23:08:53.228Z,63.21
2022-09-15T23:11:20.809Z,63.05
2022-09-15T23:13:47.697Z,63.46
2022-09-15T23:16:14.285Z,63.50
2022-09-15T23:18:40.803Z,63.87
2022-09-15T23:21:10.386Z,63.61
2022-09-15T23:23:39.147Z,63.61
2022-09-15T23:26:07.633Z,64.36
2022-09-15T23:28:34.711Z,64.23
2022-09-15T23:31:01.221Z,64.52
2022-09-15T23:33:29.623Z,64.26
2022-09-15T23:35:59.122Z,64.35
2022-09-15T23:38:25.757Z,64.68
2022-09-15T23:40:52.303Z,64.77
2022-09-15T23:43:18.861Z,65.00
2022-09-15T23:45:46.380Z,64.96
2022-09-15T23:48:13.943Z,64.83
2022-09-15T23:50:41.325Z,65.01
2022-09-15T23:53:08.136Z,64.97
2022-09-15T23:55:35.313Z,65.15
2022-09-15T23:58:02.121Z,65.31
